Portada
METAR-TAF:

METAR-TAF

Aeropuertos :

Aeropuerto Internacional de Baréin

Baréin, Bahréin

latitud: 26-16N, longitud: 050-39E, altitud: 2 m

Observación

El informe se hizo hace 19 minutos, a las 06:30 UTC
Viento 16 kt del noroeste
Temperatura 37°C
Humedad 48%
Presión 998 hPa
Visibilidad 10 km o más
sin nubes por debajo de 1500 m y sin presencia de cumulonimbus.

METAR: OBBI 220630Z 32016KT CAVOK 37/24 Q0998 NOSIG

Hora: 09:49 (06:49 UTC)

Pronóstico

El informe se hizo hace 1 hora y 49 minutos, a las 05:00 UTC
Pronóstico válido del 22 a las 06 UTC al 23 a las 12 UTC
Viento 18 kt del norte-noroeste con ráfagas de 28 kt
Visibilidad: 8000 m
Evolucionando progresivamente
del 22 a las 15 UTC al 22 a las 17 UTC
Viento 12 kt del norte-noroeste
Evolucionando progresivamente
del 23 a las 03 UTC al 23 a las 05 UTC
Viento 18 kt del norte-noroeste con ráfagas de 28 kt

TAF: OBBI 220500Z 2206/2312 33018G28KT 8000 NSC BECMG 2215/2217 33012KT BECMG 2303/2305 33018G28KT

Observaciones y pronósticos meteorológicos de más de 4000 aeropuertos (mensajes METAR y TAF).

Los puntos amarillos y rojos representan las estaciones disponibles.

Ponga el ratón en el punto deseado para ver el nombre de la estación.

Haga clic para ver las observaciones y los pronósticos meteorológicos.

Para cambiar el mapa : haga clic en los botones verdes con una cruz de color negro para hacer un zoom, en el botón verde con un guión para alejar o en las flechas verdes para mapas adyacentes.


METAR-TAF: